Strona główna
METAR-TAF:

Lotnisko :

Albert, Francja

Szerokość geograficzna: 49-58-21N, Długość geograficzna: 002-41-29E, wysokość: 111 m

Aktualna obserwacja pogody

Raport powstał 20 minut temu, godzina 07:30 UTC
Wiatr 10 kt od północ
Temperatura 11°C
Wilgotność 82%
Ciśnienie 1020 hPa
Widzialność 10 km lub więcej
Mało chmury na wysokości 1900 ft
Zachmurzenie całkowite na wysokości 2800 ft

METAR: LFAQ 240730Z AUTO 36010KT 9999 FEW019 OVC028 11/08 Q1020 NOSIG

czas: 09:50 (07:50 UTC)

Prognoza

Raport powstał 2 godziny i 50 minut temu, godzina 05:00 UTC
Prognoza ważna od 24 godzina 06 UTC do 24 godzina 15 UTC
Wiatr 10 kt od północ
Widzialność 10 km lub więcej
Przerywane chmury na wysokości 2500 ft

TAF: LFAQ 240500Z 2406/2415 36010KT 9999 BKN025

METAR-TAF

Obserwacja i prognoza pogody dla ponad 4000 lotnisk (raport METAR i TAF).

Dostępne stacje oznaczono żółtymi i czerwonymi punktami na mapie.

Najedź kursorem aby zobaczyć nazwę stacji.

Kliknij aby zobaczyć obserwacje i prognozy pogody.

Aby zmienić mapę: kliknij na zielony przycisk z czarnym krzyżykiem, aby powiększyć; na zielony przycisk z myślnikiem, aby pomniejszyć; na zielone strzałki, aby przejść do map sąsiednich.


METAR-TAF: